Time;durP1;ratioP1;P1;durP2;ratioP2;P2;SDS_P1;SDS_P2;PMS_P1;PMS_P2;Temp;Humidity;BMP_temperature;BMP_pressure;BME280_temperature;BME280_humidity;BME280_pressure;Samples;Min_cycle;Max_cycle;Signal;HPM_P1;HPM_P2
2022/06/21 00:02:06;;;;;;;2.38;1.10;;;23.70;80.30;;;;;;5094365;28;20415;-45
2022/06/21 00:04:32;;;;;;;3.00;1.17;;;23.60;68.90;;;;;;5094518;28;20032;-45
2022/06/21 00:07:03;;;;;;;2.53;1.23;;;23.50;72.30;;;;;;5094253;28;20109;-45
2022/06/21 00:09:29;;;;;;;3.53;1.13;;;;;;;;;;5094221;28;20031;-45
2022/06/21 00:11:55;;;;;;;3.28;1.15;;;23.70;80.40;;;;;;5094179;28;20062;-45
2022/06/21 00:14:20;;;;;;;2.80;1.30;;;23.70;80.60;;;;;;5094140;28;20047;-47
2022/06/21 00:16:46;;;;;;;3.75;1.33;;;;;;;;;;5094186;28;20027;-45
2022/06/21 00:19:20;;;;;;;2.67;1.08;;;23.70;80.70;;;;;;5093948;28;20025;-45
2022/06/21 00:21:46;;;;;;;2.80;1.17;;;23.60;52.90;;;;;;5093940;28;20028;-44
2022/06/21 00:24:13;;;;;;;2.25;1.30;;;23.40;80.60;;;;;;5093742;28;20471;-45
2022/06/21 00:26:39;;;;;;;3.67;1.40;;;23.70;80.80;;;;;;5093852;28;20390;-44
2022/06/21 00:29:05;;;;;;;4.15;1.52;;;23.50;78.60;;;;;;5093801;28;20020;-45
2022/06/21 00:31:33;;;;;;;4.25;1.55;;;23.60;66.10;;;;;;5093956;28;20030;-45
2022/06/21 00:34:05;;;;;;;2.90;1.30;;;23.40;80.50;;;;;;5092776;28;20020;-45
2022/06/21 00:36:34;;;;;;;2.30;1.30;;;22.90;79.90;;;;;;5093693;28;20028;-45
2022/06/21 00:39:01;;;;;;;4.13;1.25;;;24.20;52.60;;;;;;5093580;28;20028;-45
2022/06/21 00:41:40;;;;;;;3.53;1.25;;;23.50;80.10;;;;;;5093611;28;20469;-45
2022/06/21 00:44:11;;;;;;;3.05;1.20;;;23.40;50.30;;;;;;5093781;28;20016;-45
2022/06/21 00:46:41;;;;;;;3.00;1.50;;;23.20;80.20;;;;;;5093454;28;20043;-44
2022/06/21 00:49:22;;;;;;;2.17;1.20;;;23.40;80.20;;;;;;5093430;28;20103;-45
2022/06/21 00:51:51;;;;;;;5.07;1.73;;;23.40;50.40;;;;;;5093551;28;20064;-45
2022/06/21 00:54:28;;;;;;;3.25;1.35;;;23.20;80.20;;;;;;5093499;28;20012;-45
2022/06/21 00:57:02;;;;;;;1.73;0.93;;;23.40;50.40;;;;;;5093339;28;20405;-45
2022/06/21 00:59:33;;;;;;;3.47;1.23;;;23.50;76.00;;;;;;5093362;28;20089;-45
2022/06/21 01:02:02;;;;;;;2.75;1.20;;;23.00;81.80;;;;;;5093195;28;20107;-44
2022/06/21 01:04:40;;;;;;;2.95;1.38;;;23.30;50.30;;;;;;5092981;28;20028;-45
2022/06/21 01:07:09;;;;;;;1.88;1.05;;;23.40;50.40;;;;;;5093050;28;20028;-45
2022/06/21 01:09:59;;;;;;;4.13;1.33;;;23.30;80.60;;;;;;5093036;28;20073;-44
2022/06/21 01:12:31;;;;;;;2.22;1.15;;;23.30;50.40;;;;;;5093056;28;20024;-45
2022/06/21 01:15:05;;;;;;;1.95;1.20;;;23.60;80.40;;;;;;5092843;28;20024;-46
2022/06/21 01:17:31;;;;;;;2.42;1.15;;;23.40;73.20;;;;;;5092869;28;20028;-45
2022/06/21 01:20:10;;;;;;;3.72;1.27;;;23.40;50.40;;;;;;5092884;28;20028;-45
2022/06/21 01:23:02;;;;;;;1.98;1.17;;;23.30;50.40;;;;;;5092702;28;20524;-45
2022/06/21 01:25:39;;;;;;;3.83;1.23;;;23.20;52.90;;;;;;5093004;28;20391;-45
2022/06/21 01:28:06;;;;;;;3.10;1.52;;;25.70;51.90;;;;;;5093066;28;20016;-45
2022/06/21 01:30:33;;;;;;;2.90;1.25;;;23.50;66.10;;;;;;5092699;28;20074;-45
2022/06/21 01:32:59;;;;;;;2.65;1.30;;;23.40;80.90;;;;;;5092979;28;20051;-45
2022/06/21 01:35:42;;;;;;;4.18;1.00;;;23.40;80.70;;;;;;5092718;28;20035;-45
2022/06/21 01:38:12;;;;;;;3.03;1.15;;;23.20;63.60;;;;;;5092694;28;20032;-45
2022/06/21 01:40:44;;;;;;;2.35;1.42;;;23.10;70.10;;;;;;5092558;28;20026;-46
2022/06/21 01:43:15;;;;;;;2.70;1.25;;;22.90;80.20;;;;;;5092592;28;20121;-45
2022/06/21 01:45:50;;;;;;;4.07;1.30;;;22.90;80.10;;;;;;5091968;28;20040;-45
2022/06/21 01:48:28;;;;;;;2.80;1.10;;;23.40;80.50;;;;;;5092640;28;20024;-44
2022/06/21 01:51:00;;;;;;;1.58;1.20;;;23.20;50.60;;;;;;5092426;28;20027;-45
2022/06/21 01:53:26;;;;;;;2.47;1.45;;;23.20;74.50;;;;;;5092409;28;20035;-45
2022/06/21 01:56:00;;;;;;;5.40;1.42;;;22.90;80.30;;;;;;5092373;28;20041;-45
2022/06/21 01:58:31;;;;;;;1.75;1.10;;;23.40;61.60;;;;;;5092267;28;20127;-45
2022/06/21 02:01:04;;;;;;;2.45;1.60;;;23.20;50.50;;;;;;5092340;28;20115;-45
2022/06/21 02:03:33;;;;;;;3.70;1.80;;;23.20;80.40;;;;;;5092241;28;20382;-45
2022/06/21 02:06:05;;;;;;;2.55;1.38;;;23.20;80.80;;;;;;5092512;28;20072;-45
2022/06/21 02:08:53;;;;;;;2.20;1.20;;;22.90;80.60;;;;;;5092126;28;20089;-51
2022/06/21 02:11:33;;;;;;;3.10;1.40;;;23.20;50.50;;;;;;5074204;28;20031;-53
2022/06/21 02:16:51;;;;;;;3.72;1.17;;;23.10;80.20;;;;;;5092234;28;20065;-53
2022/06/21 02:19:30;;;;;;;2.60;1.40;;;23.30;59.40;;;;;;5092143;28;20016;-54
2022/06/21 02:21:56;;;;;;;4.03;1.40;;;22.90;80.30;;;;;;5092383;28;20141;-53
2022/06/21 02:24:23;;;;;;;3.60;1.52;;;23.00;71.80;;;;;;5092013;28;20031;-55
2022/06/21 02:26:51;;;;;;;3.85;1.35;;;23.20;62.60;;;;;;5092310;28;20100;-54
2022/06/21 02:29:16;;;;;;;2.17;1.30;;;23.30;80.40;;;;;;5091896;28;20051;-55
2022/06/21 02:31:44;;;;;;;2.22;1.30;;;23.20;80.40;;;;;;5091903;28;20060;-53
2022/06/21 02:34:31;;;;;;;2.85;1.23;;;22.80;58.80;;;;;;5091957;28;20024;-53
2022/06/21 02:37:00;;;;;;;2.50;1.02;;;23.10;80.50;;;;;;5091938;28;20020;-53
2022/06/21 02:39:29;;;;;;;3.85;1.40;;;23.30;80.60;;;;;;5091908;28;20070;-54
2022/06/21 02:42:24;;;;;;;2.90;1.13;;;23.30;80.70;;;;;;5092186;28;20426;-54
2022/06/21 02:44:58;;;;;;;1.67;1.17;;;23.00;80.60;;;;;;5089121;28;20044;-45
2022/06/21 02:47:29;;;;;;;4.05;1.48;;;23.10;72.40;;;;;;5091903;28;20108;-45
2022/06/21 02:50:07;;;;;;;2.15;1.30;;;23.00;80.70;;;;;;5091893;28;20063;-45
2022/06/21 02:52:38;;;;;;;2.53;1.10;;;23.00;80.70;;;;;;5091912;28;20052;-45
2022/06/21 02:55:37;;;;;;;1.92;1.05;;;23.00;50.60;;;;;;5091871;28;20055;-45
2022/06/21 02:58:12;;;;;;;2.22;1.17;;;23.10;80.80;;;;;;5094899;28;20032;-45
2022/06/21 03:00:38;;;;;;;3.47;1.20;;;22.90;80.60;;;;;;5095647;28;20390;-45
2022/06/21 03:03:05;;;;;;;2.85;1.30;;;24.20;51.40;;;;;;5095372;28;20024;-45
2022/06/21 03:05:34;;;;;;;3.60;1.30;;;22.90;80.80;;;;;;5095318;28;20119;-45
2022/06/21 03:08:03;;;;;;;1.77;1.30;;;23.10;81.10;;;;;;5095282;28;20043;-45
2022/06/21 03:10:37;;;;;;;3.58;1.38;;;23.10;50.90;;;;;;5095370;28;20032;-45
2022/06/21 03:13:21;;;;;;;3.42;1.27;;;23.10;76.90;;;;;;5095396;28;20081;-45
2022/06/21 03:15:55;;;;;;;3.20;1.52;;;23.20;81.30;;;;;;5095271;28;20081;-45
2022/06/21 03:18:30;;;;;;;2.80;1.30;;;23.00;81.30;;;;;;5095147;28;20051;-45
2022/06/21 03:20:56;;;;;;;1.40;1.20;;;23.00;81.20;;;;;;5095410;28;20020;-45
2022/06/21 03:23:22;;;;;;;2.78;1.30;;;22.70;81.00;;;;;;5095031;28;20043;-46
2022/06/21 03:25:59;;;;;;;3.40;1.30;;;22.90;50.60;;;;;;5095211;28;20032;-46
2022/06/21 03:28:36;;;;;;;1.83;1.45;;;23.00;81.30;;;;;;5095025;28;20032;-45
2022/06/21 03:31:12;;;;;;;2.90;1.30;;;23.00;50.80;;;;;;5094937;28;20490;-45
2022/06/21 03:33:42;;;;;;;2.45;1.10;;;22.70;81.00;;;;;;5094969;28;20390;-45
2022/06/21 03:36:16;;;;;;;3.13;1.30;;;22.90;50.80;;;;;;5095087;28;20016;-45
2022/06/21 03:38:51;;;;;;;2.28;1.40;;;22.80;81.00;;;;;;5094960;28;20024;-54
2022/06/21 03:44:26;;;;;;;3.55;1.42;;;23.10;81.60;;;;;;4992712;28;20456;-54
2022/06/21 03:46:55;;;;;;;1.58;1.27;;;22.90;81.20;;;;;;5077411;28;20040;-54
2022/06/21 03:49:30;;;;;;;2.05;1.05;;;22.90;50.80;;;;;;5094556;28;20028;-54
2022/06/21 03:51:57;;;;;;;3.05;1.33;;;23.00;81.70;;;;;;5094534;28;20028;-52
2022/06/21 03:54:44;;;;;;;3.80;1.40;;;22.90;50.80;;;;;;5094551;28;20044;-53
2022/06/21 03:57:16;;;;;;;1.55;1.08;;;22.60;51.50;;;;;;5094819;28;20078;-45
2022/06/21 03:59:59;;;;;;;2.53;1.42;;;22.80;81.50;;;;;;5094482;28;20063;-45
2022/06/21 04:02:36;;;;;;;2.08;1.23;;;22.90;50.90;;;;;;5094318;28;20020;-45
2022/06/21 04:05:02;;;;;;;3.05;1.10;;;;;;;;;;5094514;28;20039;-45
2022/06/21 04:07:34;;;;;;;2.53;1.40;;;23.00;53.00;;;;;;5093844;28;20414;-45
2022/06/21 04:10:22;;;;;;;3.58;1.40;;;22.80;79.00;;;;;;5094220;28;20032;-46
2022/06/21 04:12:47;;;;;;;3.13;1.45;;;22.20;50.50;;;;;;5094439;28;20020;-45
2022/06/21 04:15:13;;;;;;;5.18;1.55;;;;;;;;;;5094065;28;20116;-45
2022/06/21 04:17:44;;;;;;;2.67;1.20;;;22.60;81.10;;;;;;5094022;28;20060;-45
2022/06/21 04:20:20;;;;;;;2.15;1.10;;;23.00;69.50;;;;;;5093971;28;20440;-47
2022/06/21 04:23:12;;;;;;;3.30;1.33;;;23.20;50.90;;;;;;5093978;28;20078;-47
2022/06/21 04:25:45;;;;;;;2.38;1.15;;;23.00;81.20;;;;;;5093872;28;20114;-46
2022/06/21 04:28:21;;;;;;;2.67;1.30;;;22.90;81.70;;;;;;5093972;28;20093;-45
2022/06/21 04:30:54;;;;;;;2.75;1.10;;;22.90;81.70;;;;;;5093778;28;20080;-45
2022/06/21 04:33:39;;;;;;;1.90;1.25;;;22.80;75.10;;;;;;5093845;28;20065;-45
2022/06/21 04:36:16;;;;;;;2.70;1.05;;;22.80;81.40;;;;;;5093983;28;20423;-45
2022/06/21 04:38:54;;;;;;;1.52;1.08;;;22.90;81.30;;;;;;5093678;28;20471;-45
2022/06/21 04:41:26;;;;;;;2.00;1.27;;;23.00;81.70;;;;;;5093493;28;20034;-45
2022/06/21 04:44:03;;;;;;;2.72;1.33;;;23.00;73.00;;;;;;5093451;28;20064;-44
2022/06/21 04:46:32;;;;;;;1.15;0.98;;;22.80;50.80;;;;;;5093457;28;20071;-45
2022/06/21 04:49:16;;;;;;;2.10;0.85;;;23.00;63.80;;;;;;5093341;28;20020;-45
2022/06/21 04:51:52;;;;;;;1.85;1.15;;;22.90;80.30;;;;;;5093555;28;20081;-53
2022/06/21 04:54:34;;;;;;;2.30;1.23;;;22.40;55.40;;;;;;5093249;28;20027;-54
2022/06/21 04:57:08;;;;;;;3.25;1.30;;;22.80;50.80;;;;;;5093248;28;20034;-52
2022/06/21 05:00:04;;;;;;;2.78;1.17;;;22.60;81.70;;;;;;5093468;28;20032;-54
2022/06/21 05:02:43;;;;;;;2.50;1.05;;;22.90;81.80;;;;;;5083525;28;20065;-52
2022/06/21 05:05:31;;;;;;;2.28;1.25;;;22.80;82.00;;;;;;5093154;28;20035;-52
2022/06/21 05:08:09;;;;;;;1.67;1.30;;;22.90;82.10;;;;;;5092773;28;20092;-54
2022/06/21 05:10:37;;;;;;;2.90;1.20;;;22.80;82.10;;;;;;5093142;28;20032;-55
2022/06/21 05:13:10;;;;;;;2.40;1.05;;;22.80;78.30;;;;;;5093020;28;20047;-52
2022/06/21 05:15:39;;;;;;;2.28;1.30;;;22.50;79.20;;;;;;5092984;28;20059;-52
2022/06/21 05:18:32;;;;;;;3.38;1.50;;;23.00;82.10;;;;;;5092942;28;20058;-50
2022/06/21 05:21:03;;;;;;;1.67;0.95;;;23.00;51.50;;;;;;5092303;28;20028;-50
2022/06/21 05:23:30;;;;;;;3.60;1.55;;;22.40;82.40;;;;;;5092896;28;20027;-51
2022/06/21 05:26:00;;;;;;;4.47;1.17;;;22.80;51.50;;;;;;5092673;28;20119;-50
2022/06/21 05:28:40;;;;;;;5.07;1.13;;;22.80;51.10;;;;;;5092806;28;20482;-52
2022/06/21 05:31:20;;;;;;;2.53;1.05;;;22.80;82.40;;;;;;5092899;28;20127;-52
2022/06/21 05:33:50;;;;;;;2.80;0.95;;;22.80;51.40;;;;;;5092523;28;20522;-51
2022/06/21 05:36:28;;;;;;;1.30;1.10;;;22.90;77.00;;;;;;5092504;28;20028;-53
2022/06/21 05:39:04;;;;;;;3.25;1.13;;;23.00;82.80;;;;;;5092530;28;20078;-51
2022/06/21 05:41:43;;;;;;;2.10;1.05;;;23.00;82.70;;;;;;5092546;28;20035;-49
2022/06/21 05:44:17;;;;;;;2.17;1.27;;;22.80;83.00;;;;;;5092497;28;20514;-50
2022/06/21 05:46:47;;;;;;;2.55;1.25;;;22.60;82.40;;;;;;5092479;28;20038;-50
2022/06/21 05:49:31;;;;;;;1.40;1.10;;;23.00;82.80;;;;;;5092535;28;20062;-51
2022/06/21 05:52:02;;;;;;;2.25;1.10;;;22.70;82.50;;;;;;5092399;28;20031;-53
2022/06/21 05:54:35;;;;;;;1.70;1.17;;;22.90;51.50;;;;;;5092336;28;20463;-51
2022/06/21 05:57:04;;;;;;;3.25;1.30;;;23.00;82.70;;;;;;5092293;28;20108;-52
2022/06/21 05:59:30;;;;;;;3.03;1.20;;;22.40;71.90;;;;;;5092165;28;20020;-52
2022/06/21 06:02:14;;;;;;;3.97;1.10;;;21.60;50.50;;;;;;5092265;28;20036;-51
2022/06/21 06:04:47;;;;;;;3.28;1.00;;;23.00;82.20;;;;;;5092196;28;20478;-51
2022/06/21 06:07:29;;;;;;;4.90;1.35;;;23.00;82.80;;;;;;5092092;28;20048;-46
2022/06/21 06:09:58;;;;;;;2.45;1.13;;;23.00;82.70;;;;;;5092148;28;20374;-46
2022/06/21 06:12:36;;;;;;;2.90;1.23;;;22.90;51.70;;;;;;5092395;28;20028;-47
2022/06/21 06:15:07;;;;;;;2.97;1.25;;;22.90;51.60;;;;;;5092175;28;20020;-46
2022/06/21 06:17:52;;;;;;;2.90;1.23;;;23.00;83.10;;;;;;5092225;28;20028;-45
2022/06/21 06:20:18;;;;;;;1.63;1.25;;;;;;;;;;5092422;28;20098;-46
2022/06/21 06:22:58;;;;;;;7.65;1.13;;;23.10;57.90;;;;;;5092196;28;20028;-47
2022/06/21 06:25:39;;;;;;;2.65;1.30;;;22.90;51.30;;;;;;5092180;28;20036;-47
2022/06/21 06:28:29;;;;;;;2.78;1.30;;;23.10;82.50;;;;;;5092515;28;20440;-47
2022/06/21 06:31:12;;;;;;;4.13;1.27;;;22.90;82.40;;;;;;5092186;28;20058;-46
2022/06/21 06:33:41;;;;;;;3.20;0.98;;;23.20;82.50;;;;;;5096167;28;20408;-47
2022/06/21 06:36:12;;;;;;;6.82;1.10;;;22.90;51.60;;;;;;5094717;28;20028;-48
2022/06/21 06:38:39;;;;;;;3.28;1.17;;;23.40;56.20;;;;;;5094499;28;20111;-47
2022/06/21 06:41:48;;;;;;;5.85;1.30;;;23.00;82.40;;;;;;5095920;28;20455;-48
2022/06/21 06:44:16;;;;;;;8.75;1.33;;;23.10;82.60;;;;;;4994073;28;20049;-46
2022/06/21 06:46:49;;;;;;;4.03;1.20;;;23.10;79.20;;;;;;4993890;28;20489;-48
2022/06/21 06:49:32;;;;;;;3.53;1.15;;;22.90;82.40;;;;;;5047768;28;20479;-47
2022/06/21 06:52:02;;;;;;;5.07;1.65;;;23.20;82.50;;;;;;5096115;28;20039;-47
2022/06/21 06:54:50;;;;;;;4.53;1.20;;;23.00;63.40;;;;;;5096020;28;20020;-47
2022/06/21 06:57:32;;;;;;;2.97;1.52;;;23.20;82.70;;;;;;5095732;28;20502;-47
2022/06/21 06:59:59;;;;;;;2.90;1.40;;;22.90;51.40;;;;;;5095841;28;20039;-47
2022/06/21 07:02:39;;;;;;;2.25;1.23;;;23.00;82.50;;;;;;5095554;28;20165;-46
2022/06/21 07:05:40;;;;;;;2.33;1.08;;;23.00;82.00;;;;;;5095547;28;20069;-47
2022/06/21 07:08:31;;;;;;;3.55;0.93;;;22.80;81.90;;;;;;5078193;28;20171;-47
2022/06/21 07:10:58;;;;;;;2.95;1.15;;;22.90;81.90;;;;;;5095408;28;20035;-46
2022/06/21 07:13:25;;;;;;;3.30;1.20;;;23.10;66.40;;;;;;5095397;28;20086;-47
2022/06/21 07:15:55;;;;;;;5.95;1.10;;;23.00;81.60;;;;;;5095620;28;20012;-49
2022/06/21 07:18:29;;;;;;;6.22;1.38;;;23.00;81.50;;;;;;5095446;28;20032;-47
2022/06/21 07:20:56;;;;;;;4.03;1.23;;;23.20;81.80;;;;;;5095262;28;20527;-47
2022/06/21 07:23:25;;;;;;;3.13;1.05;;;23.10;81.80;;;;;;5095147;28;20024;-49
2022/06/21 07:26:15;;;;;;;5.30;1.23;;;23.00;51.10;;;;;;5095284;28;20410;-49
2022/06/21 07:28:44;;;;;;;3.05;1.33;;;22.50;81.80;;;;;;5094872;28;20486;-47
2022/06/21 07:31:50;;;;;;;4.10;1.20;;;23.20;51.30;;;;;;5095009;28;20104;-46
2022/06/21 07:34:54;;;;;;;3.58;1.20;;;23.00;51.20;;;;;;5091143;28;20044;-47
2022/06/21 07:38:09;;;;;;;2.58;0.95;;;22.90;53.80;;;;;;5094991;28;20035;-47
2022/06/21 07:40:39;;;;;;;3.45;1.17;;;23.10;82.60;;;;;;4992913;28;20077;-47
2022/06/21 07:43:11;;;;;;;3.05;1.38;;;23.00;82.40;;;;;;4992461;28;20621;-47
2022/06/21 07:45:47;;;;;;;5.00;1.52;;;23.10;82.10;;;;;;5055410;28;20052;-47
2022/06/21 07:48:16;;;;;;;4.45;1.13;;;23.10;82.40;;;;;;5094767;28;20032;-48
2022/06/21 07:50:42;;;;;;;1.77;0.90;;;;;;;;;;5094961;28;20388;-48
2022/06/21 07:53:08;;;;;;;4.45;1.30;;;;;;;;;;5094587;28;20020;-47
2022/06/21 07:56:13;;;;;;;3.50;1.00;;;23.00;51.30;;;;;;5094587;28;20630;-48
2022/06/21 07:58:49;;;;;;;4.78;1.33;;;23.20;81.90;;;;;;4992749;28;20046;-47
2022/06/21 08:07:03;;;;;;;5.00;1.20;;;23.00;82.20;;;;;;5094440;28;20031;-47
2022/06/21 08:09:55;;;;;;;4.78;1.30;;;22.90;82.20;;;;;;5094284;28;20117;-47
2022/06/21 08:12:20;;;;;;;1.65;1.17;;;23.10;82.20;;;;;;5082937;28;20032;-47
2022/06/21 08:14:47;;;;;;;4.45;1.10;;;22.80;81.90;;;;;;5094250;28;20024;-47
2022/06/21 08:17:42;;;;;;;1.63;0.93;;;22.90;82.00;;;;;;5094045;28;20026;-47
2022/06/21 08:20:08;;;;;;;3.53;1.20;;;23.20;82.40;;;;;;5094252;28;20099;-48
2022/06/21 08:22:50;;;;;;;2.22;1.00;;;23.20;74.00;;;;;;5094067;28;20107;-48
2022/06/21 08:25:40;;;;;;;2.45;0.90;;;23.00;51.60;;;;;;5093993;28;20068;-48
2022/06/21 08:28:19;;;;;;;4.70;1.10;;;23.10;81.40;;;;;;5093889;28;20035;-51
2022/06/21 08:31:00;;;;;;;1.40;0.90;;;23.30;82.60;;;;;;5093913;28;20115;-49
2022/06/21 08:33:34;;;;;;;2.42;0.90;;;23.10;51.70;;;;;;5093864;28;20099;-48
2022/06/21 08:36:01;;;;;;;2.63;1.30;;;23.10;82.00;;;;;;5093845;28;20036;-48
2022/06/21 08:38:36;;;;;;;2.10;0.90;;;22.90;82.20;;;;;;5093783;28;20024;-48
2022/06/21 08:44:20;;;;;;;2.38;1.05;;;23.00;82.40;;;;;;5093737;28;20061;-47
2022/06/21 08:47:09;;;;;;;3.47;1.00;;;23.30;55.10;;;;;;5093499;28;20036;-48
2022/06/21 08:50:08;;;;;;;1.45;0.95;;;23.10;69.50;;;;;;5093608;28;20488;-47
2022/06/21 08:52:51;;;;;;;3.92;0.70;;;23.20;51.40;;;;;;5038266;28;20422;-47
2022/06/21 08:55:41;;;;;;;2.83;1.10;;;23.20;82.00;;;;;;5092569;28;20039;-47
2022/06/21 08:58:28;;;;;;;1.95;0.80;;;23.30;81.80;;;;;;5093393;28;20031;-47
2022/06/21 09:01:06;;;;;;;1.05;0.70;;;23.20;50.80;;;;;;5093475;28;20043;-47
2022/06/21 09:03:59;;;;;;;2.05;0.98;;;23.20;57.10;;;;;;5093628;28;20355;-46
2022/06/21 09:06:30;;;;;;;2.28;1.25;;;23.40;81.70;;;;;;5093444;28;20075;-47
2022/06/21 09:09:05;;;;;;;1.65;0.70;;;23.50;74.80;;;;;;5093112;28;20140;-48
2022/06/21 09:11:51;;;;;;;2.00;0.80;;;23.50;81.20;;;;;;5093556;28;20382;-46
2022/06/21 09:15:04;;;;;;;2.00;0.80;;;23.40;78.00;;;;;;5092204;28;20101;-48
2022/06/21 09:17:30;;;;;;;1.80;1.00;;;23.40;80.90;;;;;;5093109;28;20024;-47
2022/06/21 09:19:56;;;;;;;2.15;0.90;;;;;;;;;;5092973;28;20094;-47
2022/06/21 09:22:28;;;;;;;3.20;1.00;;;23.40;50.50;;;;;;5092901;28;20429;-49
2022/06/21 09:25:37;;;;;;;4.28;0.95;;;23.60;71.60;;;;;;5092873;28;20375;-48
2022/06/21 09:28:10;;;;;;;1.83;0.65;;;23.60;80.80;;;;;;5036580;28;20044;-47
2022/06/21 09:31:04;;;;;;;1.52;0.88;;;23.60;77.50;;;;;;5092854;28;20046;-47
2022/06/21 09:33:51;;;;;;;1.52;0.80;;;23.20;80.40;;;;;;5074571;28;20019;-47
2022/06/21 09:36:29;;;;;;;1.88;0.80;;;23.80;80.70;;;;;;5092671;28;20038;-47
2022/06/21 09:39:26;;;;;;;2.92;0.82;;;23.80;80.80;;;;;;5092748;28;20036;-47
2022/06/21 09:42:04;;;;;;;1.55;0.90;;;23.40;54.00;;;;;;5092555;28;20110;-47
2022/06/21 09:44:46;;;;;;;1.67;0.63;;;23.80;79.90;;;;;;5092879;28;20398;-47
2022/06/21 09:47:12;;;;;;;1.35;0.70;;;;;;;;;;5092804;28;20414;-47
2022/06/21 09:50:13;;;;;;;1.40;0.68;;;23.70;72.50;;;;;;5092452;28;20024;-48
2022/06/21 09:53:11;;;;;;;1.05;0.70;;;23.70;81.10;;;;;;5092443;28;20039;-47
2022/06/21 09:55:51;;;;;;;1.00;0.65;;;23.60;80.80;;;;;;5092527;28;20029;-48
2022/06/21 09:58:47;;;;;;;3.13;0.93;;;23.80;81.20;;;;;;5092809;28;20020;-48
2022/06/21 10:01:20;;;;;;;2.80;0.60;;;23.60;80.60;;;;;;5074463;28;20051;-47
2022/06/21 10:03:55;;;;;;;1.35;0.60;;;23.70;59.40;;;;;;5092502;28;20028;-47
2022/06/21 10:06:35;;;;;;;0.90;0.65;;;24.00;80.10;;;;;;5091977;28;20494;-47
2022/06/21 10:09:09;;;;;;;1.03;0.80;;;24.00;80.90;;;;;;5092257;28;20123;-48
2022/06/21 10:12:03;;;;;;;2.15;0.63;;;23.60;80.80;;;;;;5092348;28;20282;-47
2022/06/21 10:15:09;;;;;;;1.05;0.70;;;23.60;80.50;;;;;;5091011;28;20032;-47
2022/06/21 10:17:48;;;;;;;0.88;0.40;;;23.70;80.30;;;;;;5054742;28;20043;-47
2022/06/21 10:20:34;;;;;;;2.53;0.70;;;24.10;80.50;;;;;;5092243;28;20394;-48
2022/06/21 10:23:07;;;;;;;1.05;0.50;;;24.10;80.30;;;;;;5092560;28;20020;-48
2022/06/21 10:25:51;;;;;;;0.93;0.80;;;23.60;80.00;;;;;;5092392;28;20032;-47
2022/06/21 10:28:51;;;;;;;2.58;0.90;;;24.00;80.40;;;;;;5092140;28;20032;-47
2022/06/21 10:31:28;;;;;;;2.03;0.70;;;23.80;80.30;;;;;;5092141;28;20431;-49
2022/06/21 10:34:05;;;;;;;0.93;0.50;;;24.00;64.20;;;;;;5092148;28;20085;-48
2022/06/21 10:36:49;;;;;;;1.17;0.80;;;24.20;80.40;;;;;;5092114;28;20055;-46
2022/06/21 10:39:33;;;;;;;1.08;0.80;;;24.20;80.50;;;;;;5092041;28;20039;-48
2022/06/21 10:45:13;;;;;;;1.48;0.65;;;24.00;49.30;;;;;;5092239;28;20086;-47
2022/06/21 10:47:57;;;;;;;2.20;0.50;;;24.10;49.30;;;;;;5091980;28;20031;-47
2022/06/21 10:50:56;;;;;;;1.20;0.50;;;24.10;80.40;;;;;;5091965;28;20071;-47
2022/06/21 10:53:50;;;;;;;0.95;0.50;;;23.80;80.90;;;;;;5092552;28;20028;-47
2022/06/21 10:57:14;;;;;;;0.95;0.52;;;23.70;80.60;;;;;;5092201;28;20016;-47
2022/06/21 11:02:56;;;;;;;1.45;0.68;;;24.10;55.00;;;;;;5092128;28;20089;-46
2022/06/21 11:05:22;;;;;;;1.08;0.50;;;;;;;;;;5092026;28;20047;-48
2022/06/21 11:08:01;;;;;;;1.25;0.70;;;24.10;80.60;;;;;;5091647;28;20048;-48
2022/06/21 11:10:39;;;;;;;1.38;0.75;;;24.00;80.60;;;;;;5091740;28;20559;-47
2022/06/21 11:13:11;;;;;;;1.77;0.52;;;24.00;80.70;;;;;;5091819;28;20034;-47
2022/06/21 11:16:21;;;;;;;1.60;0.80;;;24.00;80.60;;;;;;5091979;28;20050;-47
2022/06/21 11:19:22;;;;;;;2.38;0.50;;;24.40;81.10;;;;;;5055771;28;20077;-47
2022/06/21 11:22:27;;;;;;;1.23;0.50;;;24.10;49.10;;;;;;5081640;28;20071;-48
2022/06/21 11:25:15;;;;;;;0.95;0.70;;;23.90;80.70;;;;;;5095409;28;20055;-47
2022/06/21 11:27:40;;;;;;;1.83;0.60;;;;;;;;;;5095139;28;20576;-47
2022/06/21 11:30:17;;;;;;;1.42;0.63;;;24.30;80.60;;;;;;5095082;28;20028;-48
2022/06/21 11:33:07;;;;;;;1.48;0.63;;;24.40;80.70;;;;;;5095357;28;20104;-47
2022/06/21 11:35:54;;;;;;;0.95;0.60;;;23.80;80.90;;;;;;5095359;28;20024;-47
2022/06/21 11:38:20;;;;;;;1.00;0.55;;;;;;;;;;5095151;28;20513;-47
2022/06/21 11:41:11;;;;;;;2.42;0.70;;;24.60;49.40;;;;;;5094850;28;20077;-47
2022/06/21 11:44:00;;;;;;;2.35;0.70;;;24.00;79.70;;;;;;5094876;28;20020;-47
2022/06/21 11:46:36;;;;;;;1.52;0.73;;;24.00;79.80;;;;;;5095112;28;20047;-47
2022/06/21 11:49:20;;;;;;;2.13;0.70;;;24.10;60.70;;;;;;5094753;28;20152;-47
2022/06/21 11:52:13;;;;;;;1.02;0.63;;;24.20;49.20;;;;;;5094619;28;20521;-47
2022/06/21 11:55:03;;;;;;;0.88;0.50;;;24.40;80.10;;;;;;5094725;28;20027;-48
2022/06/21 11:57:30;;;;;;;;;;;24.10;49.70;;;;;;5095157;28;20477;-47
2022/06/21 11:59:59;;;;;;;0.75;0.52;;;24.30;65.50;;;;;;5095149;28;19911;-47
2022/06/21 12:02:24;;;;;;;1.35;0.52;;;24.30;80.00;;;;;;5094438;28;20111;-49
2022/06/21 12:05:36;;;;;;;1.00;0.30;;;24.20;79.90;;;;;;5094320;28;20131;-47
2022/06/21 12:08:43;;;;;;;1.13;0.40;;;24.10;49.30;;;;;;5089675;28;20058;-48
2022/06/21 12:11:19;;;;;;;2.55;0.60;;;24.10;80.00;;;;;;5094311;28;20035;-47
2022/06/21 12:14:23;;;;;;;4.72;0.63;;;23.90;79.80;;;;;;5094362;28;20027;-51
2022/06/21 12:17:15;;;;;;;1.27;0.52;;;23.90;79.80;;;;;;5094242;28;20455;-52
2022/06/21 12:19:45;;;;;;;0.82;0.55;;;24.00;70.70;;;;;;5094272;28;20479;-50
2022/06/21 12:22:37;;;;;;;0.60;0.50;;;24.10;79.80;;;;;;5094145;28;20099;-54
2022/06/21 12:25:04;;;;;;;0.90;0.45;;;24.20;80.00;;;;;;5094002;28;20028;-51
2022/06/21 12:27:30;;;;;;;0.73;0.45;;;23.90;74.90;;;;;;5094154;28;20030;-49
2022/06/21 12:30:14;;;;;;;1.27;0.50;;;24.10;68.90;;;;;;5093814;28;20024;-50
2022/06/21 12:32:40;;;;;;;2.25;0.70;;;24.20;49.40;;;;;;5094002;28;20475;-51
2022/06/21 12:35:15;;;;;;;1.80;0.60;;;24.10;49.40;;;;;;5093836;28;20031;-50
2022/06/21 12:37:53;;;;;;;1.67;0.70;;;23.70;79.40;;;;;;5093885;28;20028;-51
2022/06/21 12:40:38;;;;;;;0.98;0.57;;;24.20;79.80;;;;;;5093804;28;20111;-51
2022/06/21 12:43:37;;;;;;;1.27;0.50;;;23.70;57.00;;;;;;5093621;28;20044;-50
2022/06/21 12:46:07;;;;;;;2.28;0.47;;;23.60;79.80;;;;;;5093650;28;20047;-52
2022/06/21 12:48:48;;;;;;;;;;;24.10;49.80;;;;;;5094237;28;20470;-52
2022/06/21 12:51:17;;;;;;;1.00;0.50;;;24.10;60.50;;;;;;5093632;28;19915;-54
2022/06/21 12:54:18;;;;;;;1.20;0.52;;;24.30;55.80;;;;;;5093378;28;20028;-53
2022/06/21 12:57:09;;;;;;;1.05;0.40;;;24.10;65.00;;;;;;5075240;28;20573;-55
2022/06/21 13:00:02;;;;;;;1.15;0.55;;;24.10;49.10;;;;;;5093425;28;20035;-51
2022/06/21 13:03:03;;;;;;;0.90;0.52;;;24.20;56.80;;;;;;5093237;28;20034;-49
2022/06/21 13:05:38;;;;;;;0.70;0.57;;;24.20;56.40;;;;;;5093062;28;20149;-53
2022/06/21 13:08:29;;;;;;;0.95;0.50;;;24.10;52.00;;;;;;5093125;28;20055;-50
2022/06/21 13:10:59;;;;;;;1.02;0.40;;;24.40;80.20;;;;;;5093467;28;20387;-53
2022/06/21 13:13:59;;;;;;;0.70;0.50;;;24.00;79.80;;;;;;5093119;28;20032;-52
2022/06/21 13:16:53;;;;;;;0.60;0.40;;;24.10;79.50;;;;;;5093413;28;20036;-51
2022/06/21 13:19:36;;;;;;;0.57;0.50;;;24.20;79.40;;;;;;5093019;28;20428;-54
2022/06/21 13:22:23;;;;;;;1.73;0.80;;;24.20;49.10;;;;;;5093076;28;20020;-50
2022/06/21 13:25:07;;;;;;;0.73;0.50;;;24.40;79.40;;;;;;5092886;28;20051;-54
2022/06/21 13:27:50;;;;;;;3.08;0.40;;;24.30;79.50;;;;;;5092876;28;20046;-52
2022/06/21 13:30:39;;;;;;;0.60;0.40;;;23.80;62.70;;;;;;5092783;28;20050;-51
2022/06/21 13:33:13;;;;;;;1.40;0.73;;;24.00;79.30;;;;;;5079215;28;20047;-54
2022/06/21 13:36:10;;;;;;;0.80;0.55;;;24.20;49.20;;;;;;5092571;28;20046;-50
2022/06/21 13:38:56;;;;;;;1.30;0.50;;;24.20;49.20;;;;;;5057423;28;20061;-50
2022/06/21 13:45:10;;;;;;;0.75;0.50;;;24.40;79.40;;;;;;5036739;28;20126;-50
2022/06/21 13:48:01;;;;;;;2.90;0.52;;;23.70;78.40;;;;;;5083581;28;20051;-47
2022/06/21 13:50:31;;;;;;;1.88;0.60;;;24.20;79.30;;;;;;5092377;28;20020;-49
2022/06/21 13:53:17;;;;;;;;;;;24.20;49.80;;;;;;5092823;28;20142;-48
2022/06/21 13:55:54;;;;;;;1.33;0.50;;;24.10;79.30;;;;;;5092519;28;19952;-47
2022/06/21 13:58:45;;;;;;;1.60;0.70;;;23.80;57.60;;;;;;5092281;28;20116;-47
2022/06/21 14:01:29;;;;;;;1.10;0.28;;;24.40;79.40;;;;;;5092382;28;20028;-47
2022/06/21 14:04:01;;;;;;;0.50;0.40;;;24.40;79.60;;;;;;5092602;28;20027;-46
2022/06/21 14:06:49;;;;;;;0.82;0.40;;;24.30;79.00;;;;;;5092566;28;20044;-46
2022/06/21 14:09:30;;;;;;;0.73;0.50;;;24.40;79.10;;;;;;5092164;28;20048;-47
2022/06/21 14:12:11;;;;;;;1.40;0.50;;;24.20;61.20;;;;;;5092196;28;20383;-47
2022/06/21 14:14:53;;;;;;;0.68;0.32;;;24.30;49.20;;;;;;5092239;28;20439;-47